Webcam Flughafen St.Gallen-Altenrhein

Live-Bilder und Zeitraffer LSZR / ACH.

 

Live aus Altenrhein
LIVE
LSZR 241950Z AUTO VRB02KT CAVOK 08/08 Q1017
Zeitraffer heute
2020-10-24 00:14:44
LSZR 232150Z AUTO 11009KT 9999 OVC060 13/13 Q1017